Startpagina
METAR-TAF:

METAR-TAF

Vliegvelden :

Flughafen Mönchengladbach

Mönchengladbach, Duitsland

breedte: 51-13-49N, lengte: 006-30-16E, hoogte: 38 m

Actueel weer

Dit bericht is 11 minuten geleden gemaakt, om 15:50 UTC
Wind 5 kt uit het zuidwesten, variërend tussen het zuiden en het westen
Temperatuur 17°C
Vochtigheid 52%
Druk 1030 hPa
Zicht 10 km of meer
geen wolken onder 1500 m en geen cumulonimbus

METAR: EDLN 061550Z 22005KT 170V260 CAVOK 17/07 Q1030

Tijdstip: 18:01 (16:01 UTC)

Verwachting

Dit bericht is 2 uur en het 1 minuten geleden gemaakt, om 14:00 UTC
Verwachting geldig van 06 om 15 UTC tot 06 om 24 UTC
Wind 6 kt uit het westzuidwesten
Zicht 10 km of meer
geen wolken onder 1500 m en geen cumulonimbus
Wijzigt naar
van 06 om 16 UTC tot 06 om 18 UTC
Wind 3 kt uit variabele richting

TAF: EDLN 061400Z 0615/0624 24006KT CAVOK BECMG 0616/0618 VRB03KT

Waarnemingen en weersverwachtingen van meer dan 4000 vliegvelden (METAR en TAF).

De beschikbare stations zijn de gele en rode punten op de kaart.

Ga met uw muis naar het station om de naam te zien.

Klik dan om waarnemingen en weersverwachtingen te zien.

kaart wijzigen: klik op de groene knoppen met een zwart kruis om in te zoomen, op de groene knop met een streepje om uit te zoomen of op de groene pijlen voor aangrenzende kaarten.


METAR-TAF: